Time;durP1;ratioP1;P1;durP2;ratioP2;P2;SDS_P1;SDS_P2;PMS_P1;PMS_P2;Temp;Humidity;BMP_temperature;BMP_pressure;BME280_temperature;BME280_humidity;BME280_pressure;Samples;Min_cycle;Max_cycle;Signal;HPM_P1;HPM_P2
2021/03/04 00:00:04;;;;;;;3.95;1.15;;;18.40;46.20;;;;;;5095948;28;20080;-68
2021/03/04 00:02:30;;;;;;;6.72;1.30;;;18.40;46.70;;;;;;5095928;28;20077;-68
2021/03/04 00:04:57;;;;;;;;;;;18.40;46.80;;;;;;5097311;28;20517;-68
2021/03/04 00:07:23;;;;;;;7.32;1.25;;;18.30;46.90;;;;;;5096828;28;19956;-67
2021/03/04 00:09:50;;;;;;;11.73;1.20;;;18.10;47.20;;;;;;5095181;28;20106;-67
2021/03/04 00:12:17;;;;;;;13.13;2.03;;;18.00;47.60;;;;;;5095555;28;20144;-67
2021/03/04 00:14:43;;;;;;;13.70;1.42;;;17.90;47.60;;;;;;5091807;28;20179;-67
2021/03/04 00:17:09;;;;;;;;;;;17.80;48.30;;;;;;5094045;28;20465;-68
2021/03/04 00:19:36;;;;;;;5.43;1.10;;;17.70;48.90;;;;;;5097420;28;19956;-69
2021/03/04 00:22:03;;;;;;;11.07;1.38;;;17.80;49.00;;;;;;5094731;28;20091;-68
2021/03/04 00:24:29;;;;;;;5.78;1.08;;;17.80;49.20;;;;;;5101500;28;20069;-68
2021/03/04 00:26:55;;;;;;;;;;;17.80;48.80;;;;;;5100601;28;20148;-65
2021/03/04 00:29:22;;;;;;;6.35;1.20;;;17.70;48.50;;;;;;5101717;28;19963;-66
2021/03/04 00:31:48;;;;;;;;;;;17.70;48.50;;;;;;5098113;28;20162;-65
2021/03/04 00:34:15;;;;;;;3.80;0.98;;;17.60;48.50;;;;;;5098244;28;19983;-66
2021/03/04 00:36:41;;;;;;;;;;;17.70;48.60;;;;;;5094711;28;20069;-64
2021/03/04 00:39:08;;;;;;;3.80;0.93;;;17.70;48.20;;;;;;5102581;28;19956;-66
2021/03/04 00:41:35;;;;;;;8.93;1.30;;;17.70;47.50;;;;;;5098039;28;20130;-66
2021/03/04 00:44:04;;;;;;;6.63;1.40;;;17.70;47.40;;;;;;5100173;28;20077;-66
2021/03/04 00:46:32;;;;;;;8.02;1.60;;;17.70;47.70;;;;;;5100365;28;20061;-70
2021/03/04 00:48:59;;;;;;;11.32;1.10;;;17.70;48.10;;;;;;5104168;28;20073;-66
2021/03/04 00:51:26;;;;;;;9.77;1.33;;;17.70;48.00;;;;;;5105950;28;20096;-68
2021/03/04 00:53:52;;;;;;;8.00;1.67;;;17.60;48.00;;;;;;5104645;28;20077;-68
2021/03/04 00:56:18;;;;;;;;;;;17.60;47.60;;;;;;5102922;28;20083;-66
2021/03/04 00:58:45;;;;;;;4.55;1.38;;;17.60;47.50;;;;;;5092348;28;20324;-64
2021/03/04 01:01:11;;;;;;;;;;;17.60;47.40;;;;;;5098662;28;20134;-66
2021/03/04 01:03:38;;;;;;;9.43;2.33;;;17.60;47.50;;;;;;5101681;28;20336;-66
2021/03/04 01:06:04;;;;;;;;;;;17.60;47.60;;;;;;5101537;28;20100;-67
2021/03/04 01:08:31;;;;;;;10.52;2.00;;;17.60;47.40;;;;;;5104204;28;20026;-67
2021/03/04 01:10:58;;;;;;;7.75;2.05;;;17.60;47.60;;;;;;5099961;28;20084;-68
2021/03/04 01:13:24;;;;;;;5.55;1.92;;;17.70;47.50;;;;;;5101406;28;20135;-67
2021/03/04 01:15:52;;;;;;;7.10;1.58;;;17.60;47.20;;;;;;5099751;28;20184;-68
2021/03/04 01:18:18;;;;;;;6.90;1.58;;;17.60;47.40;;;;;;5100870;28;20182;-67
2021/03/04 01:20:45;;;;;;;4.65;1.20;;;17.70;46.80;;;;;;5100981;28;20402;-66
2021/03/04 01:23:11;;;;;;;7.15;1.80;;;17.70;47.10;;;;;;5096736;28;20073;-67
2021/03/04 01:25:38;;;;;;;;;;;17.70;47.00;;;;;;5098386;28;20081;-68
2021/03/04 01:28:04;;;;;;;14.15;2.65;;;17.70;47.60;;;;;;5104363;28;19963;-69
2021/03/04 01:30:33;;;;;;;12.30;2.28;;;17.70;47.80;;;;;;5108544;28;20098;-67
2021/03/04 01:33:00;;;;;;;8.40;1.65;;;17.60;47.80;;;;;;5103658;28;20549;-69
2021/03/04 01:35:27;;;;;;;9.48;1.45;;;17.60;47.40;;;;;;5101535;28;20101;-66
2021/03/04 01:37:56;;;;;;;10.77;1.75;;;17.50;47.30;;;;;;5101025;28;20159;-66
2021/03/04 01:40:23;;;;;;;9.45;1.63;;;17.50;47.20;;;;;;5099561;28;20077;-67
2021/03/04 01:42:50;;;;;;;9.45;2.20;;;17.50;46.90;;;;;;5100483;28;20064;-69
2021/03/04 01:45:18;;;;;;;9.30;3.05;;;17.40;47.50;;;;;;5105480;28;20080;-69
2021/03/04 01:47:55;;;;;;;7.82;3.15;;;17.40;48.40;;;;;;5105078;28;20065;-66
2021/03/04 01:50:23;;;;;;;10.80;3.10;;;17.30;48.40;;;;;;5085250;28;20091;-67
2021/03/04 01:52:50;;;;;;;16.17;2.70;;;17.40;47.40;;;;;;5101498;28;20122;-68
2021/03/04 01:55:19;;;;;;;4.43;2.08;;;17.30;47.20;;;;;;5105000;28;20092;-68
2021/03/04 01:57:47;;;;;;;9.60;1.90;;;17.30;47.40;;;;;;5099092;28;20072;-69
2021/03/04 02:00:18;;;;;;;8.15;1.17;;;17.20;47.30;;;;;;5110894;28;20084;-68
2021/03/04 02:02:45;;;;;;;9.55;1.35;;;17.20;47.50;;;;;;5100995;28;20104;-66
2021/03/04 02:05:13;;;;;;;;;;;17.20;47.80;;;;;;5099656;28;20176;-67
2021/03/04 02:07:54;;;;;;;;;;;17.20;47.70;;;;;;5100344;28;20405;-68
2021/03/04 02:10:48;;;;;;;18.40;4.47;;;17.20;47.90;;;;;;5099053;28;19989;-67
2021/03/04 02:13:36;;;;;;;8.75;1.80;;;17.10;48.00;;;;;;5099170;28;20100;-68
2021/03/04 02:16:11;;;;;;;8.20;1.75;;;17.10;48.10;;;;;;5103632;28;20115;-66
2021/03/04 02:18:48;;;;;;;6.80;1.80;;;17.10;48.30;;;;;;5105728;28;20068;-67
2021/03/04 02:21:31;;;;;;;5.38;1.25;;;17.10;48.50;;;;;;5101189;28;20072;-68
2021/03/04 02:24:35;;;;;;;6.90;1.02;;;17.10;48.50;;;;;;5101529;28;20440;-68
2021/03/04 02:27:16;;;;;;;9.88;1.10;;;17.00;48.50;;;;;;5100800;28;20080;-67
2021/03/04 02:30:26;;;;;;;8.98;1.80;;;16.90;49.10;;;;;;5099192;28;20068;-65
2021/03/04 02:33:00;;;;;;;5.90;1.23;;;16.90;49.80;;;;;;5028408;28;20129;-67
2021/03/04 02:35:31;;;;;;;5.32;1.30;;;16.80;50.10;;;;;;5089740;28;20101;-69
2021/03/04 02:38:12;;;;;;;8.43;2.03;;;16.70;50.20;;;;;;5096141;28;20100;-69
2021/03/04 02:40:41;;;;;;;9.95;1.88;;;16.50;50.90;;;;;;5098177;28;20160;-67
2021/03/04 02:43:12;;;;;;;11.02;3.75;;;16.60;52.00;;;;;;5096841;28;20073;-67
2021/03/04 02:45:41;;;;;;;13.48;3.50;;;16.40;53.40;;;;;;5097453;28;20092;-68
2021/03/04 02:48:12;;;;;;;13.95;2.78;;;16.40;54.30;;;;;;5103425;28;20072;-68
2021/03/04 02:50:41;;;;;;;11.07;1.92;;;16.20;55.20;;;;;;5110024;28;20077;-67
2021/03/04 02:53:10;;;;;;;6.72;1.42;;;16.20;56.00;;;;;;5106066;28;20159;-69
2021/03/04 02:55:38;;;;;;;8.30;1.55;;;16.10;56.60;;;;;;5101397;28;20136;-66
2021/03/04 02:58:08;;;;;;;8.98;1.38;;;16.00;57.60;;;;;;5101585;28;20079;-69
2021/03/04 03:00:37;;;;;;;10.93;1.23;;;15.90;58.60;;;;;;5105746;28;20068;-68
2021/03/04 03:03:08;;;;;;;9.10;1.08;;;15.80;59.60;;;;;;5097212;28;20517;-68
2021/03/04 03:05:37;;;;;;;5.32;1.00;;;15.60;60.80;;;;;;5098482;28;20106;-68
2021/03/04 03:08:04;;;;;;;2.90;0.93;;;15.60;61.60;;;;;;5093250;28;20083;-67
2021/03/04 03:10:31;;;;;;;7.70;1.00;;;15.60;62.50;;;;;;5096210;28;20099;-66
2021/03/04 03:13:00;;;;;;;5.30;0.60;;;15.40;63.70;;;;;;5097036;28;20132;-67
2021/03/04 03:15:27;;;;;;;2.80;0.73;;;15.30;64.60;;;;;;5112032;27;20104;-68
2021/03/04 03:17:56;;;;;;;3.55;1.02;;;15.30;65.40;;;;;;5098051;28;20084;-67
2021/03/04 03:20:23;;;;;;;;;;;15.10;66.90;;;;;;5096715;28;20122;-67
2021/03/04 03:22:51;;;;;;;4.67;1.40;;;15.00;67.90;;;;;;5100911;28;19981;-67
2021/03/04 03:25:18;;;;;;;4.95;1.63;;;14.90;69.00;;;;;;5113913;27;20386;-67
2021/03/04 03:27:46;;;;;;;3.70;1.20;;;15.00;69.40;;;;;;5101587;28;20076;-67
2021/03/04 03:30:22;;;;;;;2.75;1.20;;;15.00;69.40;;;;;;5099356;28;20424;-67
2021/03/04 03:33:02;;;;;;;1.88;0.70;;;15.00;69.50;;;;;;5100018;28;20098;-68
2021/03/04 03:35:30;;;;;;;2.20;0.80;;;15.00;70.20;;;;;;5096973;28;20096;-69
2021/03/04 03:37:59;;;;;;;3.80;0.80;;;15.00;70.60;;;;;;5103004;28;20103;-67
2021/03/04 03:40:28;;;;;;;4.40;1.15;;;15.00;70.60;;;;;;5108367;28;20092;-66
2021/03/04 03:42:56;;;;;;;5.45;0.98;;;14.90;71.20;;;;;;5089021;28;20069;-69
2021/03/04 03:45:33;;;;;;;2.97;0.63;;;14.80;72.40;;;;;;5097662;28;20550;-66
2021/03/04 03:48:04;;;;;;;4.72;0.80;;;14.70;73.30;;;;;;5101605;28;20069;-66
2021/03/04 03:50:31;;;;;;;3.03;1.00;;;14.60;74.30;;;;;;5100390;28;20077;-67
2021/03/04 03:53:16;;;;;;;6.25;0.70;;;14.60;74.80;;;;;;5109901;28;20084;-68
2021/03/04 03:55:49;;;;;;;4.05;0.80;;;14.50;75.90;;;;;;5103469;28;20549;-67
2021/03/04 03:58:23;;;;;;;5.07;0.98;;;14.60;77.40;;;;;;5098182;28;20121;-68
2021/03/04 04:00:53;;;;;;;6.60;1.30;;;14.50;76.90;;;;;;5117017;27;20072;-69
2021/03/04 04:03:20;;;;;;;8.40;1.25;;;14.50;77.60;;;;;;5102462;28;20437;-68
2021/03/04 04:05:47;;;;;;;4.20;1.25;;;14.60;77.50;;;;;;5104771;28;20069;-69
2021/03/04 04:08:14;;;;;;;6.10;1.60;;;14.50;77.20;;;;;;5104662;28;20145;-67
2021/03/04 04:10:41;;;;;;;11.82;1.15;;;14.50;77.80;;;;;;5104389;28;20091;-67
2021/03/04 04:13:11;;;;;;;8.07;1.85;;;14.30;79.90;;;;;;5103251;28;20112;-68
2021/03/04 04:15:39;;;;;;;8.50;1.23;;;14.30;80.80;;;;;;5108029;28;20096;-67
2021/03/04 04:18:06;;;;;;;3.08;0.65;;;14.30;81.80;;;;;;5104228;28;20118;-68
2021/03/04 04:20:33;;;;;;;6.82;0.73;;;14.30;81.80;;;;;;5106952;28;20517;-68
2021/03/04 04:23:00;;;;;;;6.95;0.70;;;14.20;83.20;;;;;;5107856;28;20068;-67
2021/03/04 04:25:27;;;;;;;5.00;0.65;;;14.20;84.00;;;;;;5102768;28;20077;-67
2021/03/04 04:27:56;;;;;;;2.97;1.05;;;14.20;85.60;;;;;;5104372;28;20520;-68
2021/03/04 04:30:25;;;;;;;3.38;0.77;;;14.10;86.20;;;;;;5108091;28;20080;-67
2021/03/04 04:32:53;;;;;;;6.50;1.17;;;14.10;87.70;;;;;;5105933;28;20064;-67
2021/03/04 04:35:23;;;;;;;3.05;0.80;;;14.10;89.10;;;;;;5106449;28;20244;-68
2021/03/04 04:37:49;;;;;;;2.05;0.80;;;14.00;89.80;;;;;;5102113;28;20080;-69
2021/03/04 04:40:15;;;;;;;;;;;14.00;90.40;;;;;;5110621;28;20102;-68
2021/03/04 04:42:42;;;;;;;4.28;1.52;;;14.10;90.60;;;;;;5107314;28;19992;-67
2021/03/04 04:45:09;;;;;;;;;;;14.00;90.70;;;;;;5105996;28;20084;-67
2021/03/04 04:47:40;;;;;;;4.10;1.58;;;14.10;90.80;;;;;;5103565;28;19964;-67
2021/03/04 04:50:07;;;;;;;5.90;1.35;;;14.00;90.40;;;;;;5103464;28;20170;-68
2021/03/04 04:52:35;;;;;;;6.45;1.77;;;14.00;90.10;;;;;;5111805;28;20073;-65
2021/03/04 04:55:02;;;;;;;6.25;1.10;;;14.10;90.00;;;;;;5116703;28;20099;-67
2021/03/04 04:57:28;;;;;;;3.65;0.60;;;14.10;89.70;;;;;;5107904;28;20083;-67
2021/03/04 04:59:54;;;;;;;;;;;14.00;89.00;;;;;;5113492;28;20077;-68
2021/03/04 05:02:21;;;;;;;1.30;0.73;;;14.00;88.30;;;;;;5113216;28;19956;-69
2021/03/04 05:04:48;;;;;;;2.05;0.70;;;14.10;87.80;;;;;;5111237;28;20087;-70
2021/03/04 05:07:14;;;;;;;2.38;1.27;;;14.20;87.00;;;;;;5110254;28;20125;-69
2021/03/04 05:09:41;;;;;;;3.15;1.05;;;14.30;85.80;;;;;;5107288;28;20110;-69
2021/03/04 05:12:08;;;;;;;4.90;0.80;;;14.30;84.60;;;;;;5107976;28;20096;-67
2021/03/04 05:14:34;;;;;;;1.52;0.73;;;14.30;84.10;;;;;;5108473;28;20455;-68
2021/03/04 05:17:01;;;;;;;;;;;14.20;84.10;;;;;;5106690;28;20075;-69
2021/03/04 05:19:27;;;;;;;2.70;0.93;;;14.30;83.70;;;;;;5105887;28;20002;-68
2021/03/04 05:21:53;;;;;;;;;;;14.30;83.40;;;;;;5110102;28;20081;-68
2021/03/04 05:24:20;;;;;;;5.72;0.90;;;14.20;83.40;;;;;;5106331;28;19963;-70
2021/03/04 05:26:47;;;;;;;;;;;14.20;84.30;;;;;;5110565;28;20104;-69
2021/03/04 05:29:13;;;;;;;4.75;0.70;;;14.20;84.90;;;;;;5112994;28;19971;-69
2021/03/04 05:31:40;;;;;;;;;;;14.20;84.60;;;;;;5124621;27;20088;-70
2021/03/04 05:34:09;;;;;;;4.50;0.70;;;14.10;84.00;;;;;;5109200;28;20226;-67
2021/03/04 05:36:39;;;;;;;5.22;0.95;;;14.20;84.40;;;;;;5096973;28;20089;-69
2021/03/04 05:39:06;;;;;;;7.05;1.20;;;14.20;84.50;;;;;;5114351;28;20077;-69
2021/03/04 05:41:33;;;;;;;3.65;0.70;;;14.20;84.40;;;;;;5108641;28;20144;-68
2021/03/04 05:44:04;;;;;;;4.40;0.88;;;14.20;84.10;;;;;;5107866;28;20087;-69
2021/03/04 05:46:35;;;;;;;4.07;1.00;;;14.30;84.90;;;;;;5116420;28;20072;-68
2021/03/04 05:49:03;;;;;;;3.53;0.90;;;14.30;84.80;;;;;;5109369;28;20150;-69
2021/03/04 05:51:36;;;;;;;1.38;0.60;;;14.30;85.20;;;;;;5108404;28;20096;-69
2021/03/04 05:54:06;;;;;;;4.75;0.80;;;14.30;85.30;;;;;;5106508;28;20117;-69
2021/03/04 05:56:49;;;;;;;3.25;0.90;;;14.20;84.90;;;;;;5110285;28;20088;-68
2021/03/04 05:59:17;;;;;;;2.10;0.80;;;14.20;85.00;;;;;;5106170;28;20552;-68
2021/03/04 06:01:45;;;;;;;4.60;0.68;;;14.20;85.20;;;;;;5110415;28;20390;-67
2021/03/04 06:04:12;;;;;;;4.68;1.02;;;14.20;85.40;;;;;;5106735;28;20071;-68
2021/03/04 06:06:39;;;;;;;2.35;0.77;;;14.20;85.50;;;;;;5106667;28;20107;-69
2021/03/04 06:09:05;;;;;;;;;;;14.10;85.50;;;;;;5106719;28;20505;-68
2021/03/04 06:11:38;;;;;;;4.75;1.17;;;14.10;85.10;;;;;;5109098;28;21129;-69
2021/03/04 06:14:06;;;;;;;3.35;0.93;;;14.10;84.40;;;;;;5105753;28;20159;-68
2021/03/04 06:16:36;;;;;;;3.70;1.00;;;14.00;85.40;;;;;;5105493;28;20124;-69
2021/03/04 06:19:12;;;;;;;3.35;0.82;;;14.00;86.00;;;;;;5105940;28;20111;-68
2021/03/04 06:21:39;;;;;;;4.50;1.48;;;14.10;85.80;;;;;;5102942;28;20113;-69
2021/03/04 06:24:13;;;;;;;1.25;0.77;;;14.00;85.40;;;;;;5102299;28;20076;-68
2021/03/04 06:26:40;;;;;;;8.57;1.10;;;14.00;85.90;;;;;;5100035;28;20119;-68
2021/03/04 06:29:17;;;;;;;5.63;1.02;;;14.00;86.50;;;;;;5102884;28;20073;-68
2021/03/04 06:31:45;;;;;;;3.55;1.25;;;13.90;86.10;;;;;;5109029;28;20163;-67
2021/03/04 06:34:23;;;;;;;4.65;1.48;;;13.90;87.20;;;;;;5103997;28;20115;-70
2021/03/04 06:36:56;;;;;;;;;;;13.90;87.90;;;;;;5104335;28;21103;-71
2021/03/04 06:39:23;;;;;;;4.82;1.10;;;13.90;88.10;;;;;;5102383;28;19978;-69
2021/03/04 06:42:04;;;;;;;5.32;1.08;;;13.90;88.00;;;;;;5101294;28;20068;-69
2021/03/04 06:44:44;;;;;;;4.03;1.40;;;14.00;88.00;;;;;;5103112;28;20153;-69
2021/03/04 06:47:19;;;;;;;4.53;1.80;;;14.00;87.50;;;;;;5095617;28;20080;-69
2021/03/04 06:49:45;;;;;;;3.90;1.35;;;14.00;87.80;;;;;;5102590;28;20150;-68
2021/03/04 06:52:27;;;;;;;6.88;1.20;;;14.00;87.70;;;;;;5099405;28;20069;-68
2021/03/04 06:54:54;;;;;;;2.95;1.15;;;13.90;87.20;;;;;;5096255;28;20425;-68
2021/03/04 06:57:21;;;;;;;4.32;1.40;;;13.90;87.50;;;;;;5099819;28;20071;-68
2021/03/04 06:59:49;;;;;;;3.92;1.25;;;14.00;87.30;;;;;;5096286;28;20122;-68
2021/03/04 07:02:29;;;;;;;4.72;1.25;;;14.00;87.30;;;;;;5096694;28;20114;-67
2021/03/04 07:05:00;;;;;;;3.33;1.40;;;14.00;87.00;;;;;;5094624;28;20518;-67
2021/03/04 07:07:28;;;;;;;3.38;1.20;;;14.10;87.10;;;;;;5099437;28;20517;-68
2021/03/04 07:10:04;;;;;;;4.25;1.48;;;14.10;86.80;;;;;;5098453;28;20123;-67
2021/03/04 07:12:32;;;;;;;8.57;1.80;;;14.10;86.60;;;;;;5102031;28;20467;-68
2021/03/04 07:14:59;;;;;;;4.53;1.50;;;14.20;85.90;;;;;;5099926;28;20360;-67
2021/03/04 07:17:28;;;;;;;6.47;1.65;;;14.10;84.80;;;;;;5101944;28;20094;-67
2021/03/04 07:19:58;;;;;;;7.93;1.63;;;14.10;84.70;;;;;;5108033;28;20091;-67
2021/03/04 07:22:27;;;;;;;8.52;1.80;;;14.20;86.10;;;;;;5106399;28;20144;-67
2021/03/04 07:24:54;;;;;;;5.43;1.98;;;14.20;84.90;;;;;;5109065;28;20083;-68
2021/03/04 07:27:20;;;;;;;7.32;1.80;;;14.30;84.40;;;;;;5102142;28;20068;-67
2021/03/04 07:29:47;;;;;;;;;;;14.30;84.10;;;;;;5105645;28;20079;-67
2021/03/04 07:32:16;;;;;;;12.88;2.75;;;14.20;84.40;;;;;;5101027;28;20574;-69
2021/03/04 07:34:45;;;;;;;5.90;2.10;;;14.30;98.80;;;;;;5104019;28;20166;-68
2021/03/04 07:37:17;;;;;;;8.45;2.30;;;14.20;84.60;;;;;;5097802;28;20072;-68
2021/03/04 07:39:47;;;;;;;9.40;2.72;;;14.20;84.10;;;;;;5098690;28;20092;-67
2021/03/04 07:42:20;;;;;;;12.05;2.90;;;14.10;84.10;;;;;;5102149;28;20087;-67
2021/03/04 07:44:47;;;;;;;15.70;3.67;;;14.10;84.80;;;;;;5098320;28;20065;-68
2021/03/04 07:47:14;;;;;;;9.10;2.63;;;14.10;85.00;;;;;;5098906;28;20096;-67
2021/03/04 07:49:45;;;;;;;10.95;2.70;;;14.20;85.00;;;;;;5100186;28;20104;-67
2021/03/04 07:52:20;;;;;;;10.50;3.22;;;14.10;84.60;;;;;;5099297;28;20170;-68
2021/03/04 07:54:49;;;;;;;9.45;2.88;;;14.10;85.00;;;;;;5092035;28;20098;-69
2021/03/04 07:57:20;;;;;;;9.00;3.05;;;14.20;84.90;;;;;;5096824;28;20079;-67
2021/03/04 07:59:56;;;;;;;8.95;3.00;;;14.20;84.30;;;;;;5097041;28;20065;-68
2021/03/04 08:02:27;;;;;;;8.10;3.22;;;14.20;84.10;;;;;;5099768;28;20072;-68
2021/03/04 08:05:11;;;;;;;11.23;3.10;;;14.30;84.90;;;;;;5109387;28;20133;-67
2021/03/04 08:07:38;;;;;;;10.02;3.65;;;14.30;83.80;;;;;;5093185;28;20521;-67
2021/03/04 08:10:16;;;;;;;17.67;3.58;;;14.30;83.30;;;;;;5093820;28;20102;-66
2021/03/04 08:12:52;;;;;;;10.30;3.15;;;14.30;82.80;;;;;;5095737;28;20110;-67
2021/03/04 08:15:31;;;;;;;11.77;3.00;;;14.30;82.80;;;;;;5096642;28;20104;-67
2021/03/04 08:17:58;;;;;;;14.85;3.53;;;14.30;83.10;;;;;;5094921;28;20068;-67
2021/03/04 08:20:26;;;;;;;13.60;3.60;;;14.30;83.00;;;;;;5097766;28;20076;-66
2021/03/04 08:22:56;;;;;;;10.20;3.50;;;14.30;83.30;;;;;;5092181;28;20068;-67
2021/03/04 08:25:26;;;;;;;13.18;3.83;;;14.30;83.40;;;;;;5093325;28;20083;-68
2021/03/04 08:27:55;;;;;;;10.00;3.58;;;14.20;83.90;;;;;;5096739;28;20478;-67
2021/03/04 08:30:28;;;;;;;12.75;4.28;;;14.10;84.00;;;;;;5093914;28;20087;-66
2021/03/04 08:32:56;;;;;;;13.60;3.67;;;14.10;84.50;;;;;;5093519;28;20397;-66
2021/03/04 08:35:23;;;;;;;13.95;3.95;;;14.10;84.30;;;;;;5093724;28;20129;-67
2021/03/04 08:38:05;;;;;;;10.75;3.72;;;14.10;84.20;;;;;;5090959;28;20121;-68
2021/03/04 08:40:44;;;;;;;14.25;4.35;;;14.10;84.00;;;;;;5093255;28;20077;-67
2021/03/04 08:43:21;;;;;;;16.15;4.47;;;14.10;84.30;;;;;;5100533;28;20076;-67
2021/03/04 08:45:53;;;;;;;15.23;4.50;;;14.00;84.90;;;;;;5098210;28;20474;-67
2021/03/04 08:48:20;;;;;;;15.02;4.07;;;13.80;84.80;;;;;;5097530;28;20091;-67
2021/03/04 08:50:50;;;;;;;13.10;4.60;;;13.60;86.10;;;;;;5095936;28;20159;-67
2021/03/04 08:53:35;;;;;;;11.90;4.60;;;13.50;87.70;;;;;;5113416;27;20483;-67
2021/03/04 08:56:05;;;;;;;17.60;4.80;;;13.50;88.50;;;;;;5095436;28;20127;-67
2021/03/04 08:58:33;;;;;;;15.57;4.90;;;13.50;88.60;;;;;;5095930;28;20126;-67
2021/03/04 09:01:02;;;;;;;17.88;5.53;;;13.50;88.70;;;;;;5098361;28;20082;-67
2021/03/04 09:03:33;;;;;;;16.48;5.43;;;13.60;89.80;;;;;;5102582;28;20080;-67
2021/03/04 09:06:14;;;;;;;13.88;5.38;;;13.60;90.00;;;;;;5103807;28;20107;-67
2021/03/04 09:08:51;;;;;;;12.65;5.07;;;13.50;88.50;;;;;;5105685;28;20101;-67
2021/03/04 09:11:30;;;;;;;29.08;5.47;;;13.50;89.50;;;;;;5101483;28;20450;-67
2021/03/04 09:14:02;;;;;;;18.20;5.60;;;13.50;89.50;;;;;;5099248;28;20460;-66
2021/03/04 09:16:28;;;;;;;19.60;6.18;;;13.50;89.60;;;;;;5084932;28;20385;-67
2021/03/04 09:18:55;;;;;;;17.83;6.30;;;13.50;89.60;;;;;;5102831;28;20088;-67
2021/03/04 09:21:21;;;;;;;;;;;13.40;89.70;;;;;;5097968;28;20417;-66
2021/03/04 09:23:48;;;;;;;14.50;6.22;;;13.40;90.30;;;;;;5102680;28;20060;-66
2021/03/04 09:26:15;;;;;;;24.42;5.85;;;13.40;90.70;;;;;;5100508;28;20064;-67
2021/03/04 09:28:42;;;;;;;20.90;7.15;;;13.50;90.70;;;;;;5097859;28;20486;-66
2021/03/04 09:31:14;;;;;;;15.43;6.95;;;13.50;90.60;;;;;;5098271;28;20077;-67
2021/03/04 09:33:42;;;;;;;19.35;6.43;;;13.50;90.00;;;;;;5100821;28;20126;-67
2021/03/04 09:36:08;;;;;;;25.10;7.20;;;13.40;90.30;;;;;;5102051;28;20153;-67
2021/03/04 09:38:38;;;;;;;24.13;7.18;;;13.50;90.50;;;;;;5099601;28;20073;-66
2021/03/04 09:41:12;;;;;;;28.30;7.20;;;13.50;90.60;;;;;;5100627;28;20503;-66
2021/03/04 09:43:41;;;;;;;21.98;7.45;;;13.40;90.40;;;;;;5096012;28;20072;-68
2021/03/04 09:46:08;;;;;;;33.45;8.77;;;13.40;89.80;;;;;;5100780;28;20080;-68
2021/03/04 09:48:38;;;;;;;31.90;9.55;;;13.40;90.20;;;;;;5104122;28;20080;-67
2021/03/04 09:51:05;;;;;;;24.58;9.98;;;13.40;90.00;;;;;;5098848;28;20077;-67
2021/03/04 09:53:42;;;;;;;22.67;9.55;;;13.40;90.00;;;;;;5106181;28;20155;-66
2021/03/04 09:56:09;;;;;;;21.92;10.38;;;13.30;90.00;;;;;;5096411;28;20100;-67
2021/03/04 09:58:41;;;;;;;;;;;13.30;90.30;;;;;;5104156;28;20115;-67
2021/03/04 10:01:07;;;;;;;31.15;10.45;;;13.30;90.10;;;;;;5098919;28;20010;-67
2021/03/04 10:03:35;;;;;;;;;;;13.30;90.10;;;;;;5106152;28;20581;-66
2021/03/04 10:06:01;;;;;;;;;;;13.30;90.30;;;;;;5101941;28;20091;-67
2021/03/04 10:08:52;;;;;;;37.53;12.88;;;13.30;90.00;;;;;;5101994;28;20414;-66
2021/03/04 10:11:28;;;;;;;36.03;14.65;;;13.20;89.20;;;;;;5108077;28;20141;-67
2021/03/04 10:13:55;;;;;;;38.53;14.50;;;13.10;90.10;;;;;;5102993;28;20091;-69
2021/03/04 10:16:21;;;;;;;35.25;13.70;;;13.20;90.50;;;;;;5103589;28;20166;-67
2021/03/04 10:18:51;;;;;;;37.55;14.48;;;13.20;90.20;;;;;;5102947;28;20518;-67
2021/03/04 10:21:18;;;;;;;35.17;15.18;;;13.20;90.20;;;;;;5105920;28;20151;-67
2021/03/04 10:23:49;;;;;;;32.80;14.75;;;13.20;90.00;;;;;;5101239;28;20072;-67
2021/03/04 10:26:18;;;;;;;36.22;16.83;;;13.20;90.00;;;;;;5099549;28;20068;-67
2021/03/04 10:28:45;;;;;;;36.53;16.20;;;13.10;89.40;;;;;;5100053;28;20083;-67
2021/03/04 10:31:12;;;;;;;36.05;15.77;;;13.00;89.30;;;;;;5100273;28;20163;-67
2021/03/04 10:33:38;;;;;;;37.60;15.98;;;12.80;90.70;;;;;;5094641;28;20072;-68
2021/03/04 10:36:04;;;;;;;;;;;12.90;90.90;;;;;;5099949;28;20178;-67
2021/03/04 10:38:31;;;;;;;29.00;15.77;;;12.80;91.20;;;;;;5104941;28;20062;-67
2021/03/04 10:40:57;;;;;;;;;;;12.90;91.30;;;;;;5101549;28;20068;-67
2021/03/04 10:43:23;;;;;;;36.55;15.95;;;12.90;91.10;;;;;;5105693;28;19964;-66
2021/03/04 10:45:49;;;;;;;;;;;12.90;91.40;;;;;;5102725;28;20077;-66
2021/03/04 10:48:16;;;;;;;31.30;15.20;;;12.80;91.00;;;;;;5097574;28;20436;-68
2021/03/04 10:50:43;;;;;;;39.80;15.25;;;12.70;91.20;;;;;;5100124;28;20080;-67
2021/03/04 10:53:10;;;;;;;43.97;17.23;;;12.60;92.30;;;;;;5097647;28;20555;-67
2021/03/04 10:55:36;;;;;;;;;;;12.60;93.00;;;;;;5096414;28;20444;-67
2021/03/04 10:58:03;;;;;;;32.72;16.00;;;12.70;93.00;;;;;;5092726;28;19963;-68
2021/03/04 11:00:29;;;;;;;;;;;12.70;92.70;;;;;;5103559;28;20074;-67
2021/03/04 11:02:55;;;;;;;35.80;14.60;;;12.70;92.80;;;;;;5103821;28;20043;-67
2021/03/04 11:05:21;;;;;;;;;;;12.70;92.80;;;;;;5101490;28;20084;-67
2021/03/04 11:07:48;;;;;;;35.75;14.90;;;12.70;92.40;;;;;;5105368;28;19958;-68
2021/03/04 11:10:14;;;;;;;;;;;12.60;92.60;;;;;;5098529;28;20068;-68
2021/03/04 11:12:41;;;;;;;38.35;15.27;;;12.60;92.70;;;;;;5099202;28;20030;-68
2021/03/04 11:15:07;;;;;;;;;;;12.60;92.90;;;;;;5105332;28;20096;-67
2021/03/04 11:17:34;;;;;;;41.75;14.60;;;12.60;93.20;;;;;;5097093;28;19984;-67
2021/03/04 11:20:00;;;;;;;32.63;15.30;;;12.50;93.20;;;;;;5102207;28;20085;-67
2021/03/04 11:22:27;;;;;;;40.90;17.17;;;12.60;92.90;;;;;;5101689;28;20083;-67
2021/03/04 11:24:53;;;;;;;;;;;12.50;92.90;;;;;;5103783;28;20074;-67
2021/03/04 11:27:20;;;;;;;50.20;17.63;;;12.40;92.80;;;;;;5099852;28;20413;-67
2021/03/04 11:29:49;;;;;;;;;;;12.40;93.10;;;;;;5101950;28;20075;-68
2021/03/04 11:32:16;;;;;;;34.40;15.55;;;12.20;93.60;;;;;;5101158;28;19971;-68
2021/03/04 11:34:43;;;;;;;37.90;15.93;;;12.30;94.10;;;;;;5104548;28;21586;-67
2021/03/04 11:37:09;;;;;;;;;;;12.40;94.00;;;;;;5104114;28;20065;-67
2021/03/04 11:39:36;;;;;;;35.17;16.55;;;12.30;94.30;;;;;;5104445;28;20477;-68
2021/03/04 11:42:03;;;;;;;39.63;17.67;;;12.40;93.90;;;;;;5099093;28;20163;-66
2021/03/04 11:44:29;;;;;;;34.63;16.80;;;12.40;93.60;;;;;;5101848;28;20497;-67
2021/03/04 11:46:55;;;;;;;;;;;12.30;93.80;;;;;;5102801;28;20067;-67
2021/03/04 11:49:22;;;;;;;40.22;17.50;;;12.40;94.10;;;;;;5100417;28;19996;-67
2021/03/04 11:51:48;;;;;;;;;;;12.40;93.90;;;;;;5099063;28;20076;-67
2021/03/04 11:54:15;;;;;;;39.33;19.27;;;12.30;93.50;;;;;;5102926;28;20769;-66
2021/03/04 11:56:41;;;;;;;;;;;12.10;94.30;;;;;;5100022;28;20537;-68
2021/03/04 11:59:11;;;;;;;39.33;17.15;;;12.10;95.10;;;;;;5098439;28;19956;-68
2021/03/04 12:01:39;;;;;;;35.90;16.45;;;12.10;96.40;;;;;;5105002;28;20114;-68
2021/03/04 12:04:06;;;;;;;36.85;16.02;;;12.10;96.70;;;;;;5106039;28;20437;-68
2021/03/04 12:06:34;;;;;;;38.67;15.88;;;12.20;96.60;;;;;;5102640;28;20163;-67
2021/03/04 12:09:01;;;;;;;30.60;17.27;;;12.20;96.60;;;;;;5103001;28;20064;-68
2021/03/04 12:11:28;;;;;;;39.85;17.38;;;12.10;96.40;;;;;;5107171;28;20102;-68
2021/03/04 12:13:54;;;;;;;;;;;12.10;96.10;;;;;;5101622;28;20529;-67
2021/03/04 12:16:20;;;;;;;37.17;18.92;;;12.00;96.10;;;;;;5097717;28;20030;-67
2021/03/04 12:18:46;;;;;;;;;;;11.80;96.90;;;;;;5100639;28;20064;-69
2021/03/04 12:21:13;;;;;;;35.25;17.65;;;11.80;97.20;;;;;;5104816;28;20379;-67
2021/03/04 12:23:40;;;;;;;39.58;18.83;;;11.70;98.00;;;;;;5104045;28;20148;-66
2021/03/04 12:26:06;;;;;;;37.13;17.17;;;11.70;98.40;;;;;;5102458;28;20073;-68
2021/03/04 12:28:33;;;;;;;41.58;18.60;;;11.80;98.80;;;;;;5107438;28;20080;-67
2021/03/04 12:30:59;;;;;;;;;;;11.70;98.50;;;;;;5104112;28;20068;-67
2021/03/04 12:33:25;;;;;;;43.75;18.23;;;11.70;98.30;;;;;;5104786;28;20400;-67
2021/03/04 12:35:51;;;;;;;;;;;11.70;98.70;;;;;;5108627;28;20184;-68
2021/03/04 12:38:18;;;;;;;36.05;19.17;;;11.80;98.70;;;;;;5105543;28;19968;-68
2021/03/04 12:40:44;;;;;;;;;;;11.80;97.90;;;;;;5101975;27;20532;-68
2021/03/04 12:43:11;;;;;;;46.75;19.75;;;11.80;97.80;;;;;;5101183;28;19963;-67
2021/03/04 12:45:37;;;;;;;35.08;18.70;;;11.80;97.90;;;;;;5104061;28;20168;-67
2021/03/04 12:48:05;;;;;;;34.50;19.02;;;11.80;97.20;;;;;;5102729;28;20079;-68
2021/03/04 12:50:31;;;;;;;36.78;19.00;;;11.70;96.50;;;;;;5107318;28;20089;-67
2021/03/04 12:52:58;;;;;;;40.58;18.98;;;11.60;96.80;;;;;;5102702;28;20543;-68
2021/03/04 12:55:25;;;;;;;38.10;20.65;;;11.60;97.10;;;;;;5104548;28;20166;-68
2021/03/04 12:57:52;;;;;;;41.08;19.63;;;11.60;97.10;;;;;;5100504;28;20090;-67
2021/03/04 13:00:18;;;;;;;;;;;11.50;97.30;;;;;;5102611;28;20073;-67
2021/03/04 13:02:45;;;;;;;51.05;19.30;;;11.50;97.50;;;;;;5098654;28;19976;-68